Time;durP1;ratioP1;P1;durP2;ratioP2;P2;SDS_P1;SDS_P2;PMS_P1;PMS_P2;Temp;Humidity;BMP_temperature;BMP_pressure;BME280_temperature;BME280_humidity;BME280_pressure;Samples;Min_cycle;Max_cycle;Signal;HPM_P1;HPM_P2
2022/03/04 00:00:18;;;;;;;1.92;1.60;;;20.50;35.50;;;;;;5115867;28;20142;-79
2022/03/04 00:02:45;;;;;;;2.47;1.35;;;20.50;35.50;;;;;;5113924;28;20052;-77
2022/03/04 00:05:10;;;;;;;2.10;1.35;;;20.50;35.50;;;;;;5115909;28;20136;-77
2022/03/04 00:07:36;;;;;;;3.42;1.30;;;20.50;35.50;;;;;;5097463;28;20126;-79
2022/03/04 00:10:02;;;;;;;2.45;1.50;;;20.50;35.50;;;;;;5115705;28;20144;-79
2022/03/04 00:12:28;;;;;;;3.05;1.70;;;20.50;35.50;;;;;;5115814;28;20055;-79
2022/03/04 00:14:54;;;;;;;2.40;1.60;;;20.50;35.40;;;;;;5115764;28;20084;-79
2022/03/04 00:17:20;;;;;;;2.10;1.27;;;20.50;35.40;;;;;;5097840;28;20056;-79
2022/03/04 00:19:45;;;;;;;2.72;1.60;;;20.50;35.40;;;;;;5096458;28;20052;-79
2022/03/04 00:22:13;;;;;;;1.45;1.35;;;20.50;35.50;;;;;;5115532;28;20051;-79
2022/03/04 00:24:39;;;;;;;1.92;1.13;;;20.50;35.50;;;;;;5115698;28;20381;-79
2022/03/04 00:27:04;;;;;;;1.63;1.30;;;20.50;35.50;;;;;;5115815;28;20077;-79
2022/03/04 00:29:30;;;;;;;1.63;1.30;;;20.50;35.50;;;;;;5113087;28;20499;-79
2022/03/04 00:31:57;;;;;;;2.65;1.33;;;20.50;35.50;;;;;;5097126;28;20048;-79
2022/03/04 00:34:25;;;;;;;2.80;1.33;;;20.50;35.40;;;;;;5115398;28;20051;-77
2022/03/04 00:36:51;;;;;;;3.83;1.55;;;20.50;35.50;;;;;;5115370;28;20059;-77
2022/03/04 00:39:17;;;;;;;1.88;1.30;;;20.50;35.40;;;;;;5095673;28;20071;-77
2022/03/04 00:41:43;;;;;;;4.03;1.50;;;20.50;35.40;;;;;;5115209;28;20075;-79
2022/03/04 00:44:09;;;;;;;1.55;1.17;;;20.50;35.40;;;;;;5113511;28;20455;-79
2022/03/04 00:46:35;;;;;;;2.13;1.45;;;20.50;35.40;;;;;;5096021;28;20146;-79
2022/03/04 00:49:01;;;;;;;2.63;1.45;;;20.50;35.40;;;;;;5095098;28;20404;-80
2022/03/04 00:51:27;;;;;;;1.67;1.40;;;20.50;35.40;;;;;;5115723;28;20089;-79
2022/03/04 00:53:52;;;;;;;1.40;1.13;;;20.50;35.40;;;;;;5115031;28;20052;-79
2022/03/04 00:56:18;;;;;;;1.15;1.05;;;20.50;35.40;;;;;;5115144;28;20134;-79
2022/03/04 00:58:44;;;;;;;2.13;1.30;;;20.50;35.40;;;;;;5114942;28;20039;-79
2022/03/04 01:01:10;;;;;;;1.52;1.17;;;20.50;35.40;;;;;;5096357;28;20396;-79
2022/03/04 01:03:36;;;;;;;1.98;1.30;;;20.50;35.40;;;;;;5115216;28;20080;-79
2022/03/04 01:06:03;;;;;;;1.35;1.17;;;20.50;35.40;;;;;;5114963;28;20051;-79
2022/03/04 01:08:29;;;;;;;1.73;1.30;;;20.50;35.40;;;;;;5114902;28;20039;-77
2022/03/04 01:10:55;;;;;;;1.50;1.30;;;20.50;35.40;;;;;;5112725;28;20055;-79
2022/03/04 01:13:22;;;;;;;1.95;1.58;;;20.50;35.40;;;;;;5115105;28;20094;-79
2022/03/04 01:15:48;;;;;;;1.92;1.35;;;20.50;35.40;;;;;;5114832;28;20051;-79
2022/03/04 01:18:14;;;;;;;2.30;1.45;;;20.60;35.50;;;;;;5095821;28;20458;-79
2022/03/04 01:20:40;;;;;;;3.08;1.33;;;20.50;35.40;;;;;;5115009;28;20047;-79
2022/03/04 01:23:06;;;;;;;2.15;1.60;;;20.50;35.40;;;;;;5113303;28;20054;-79
2022/03/04 01:25:32;;;;;;;1.25;1.13;;;20.50;35.40;;;;;;5114496;28;20058;-79
2022/03/04 01:27:58;;;;;;;1.25;1.00;;;20.50;35.40;;;;;;5114780;28;21513;-79
2022/03/04 01:30:24;;;;;;;2.63;1.52;;;20.50;35.40;;;;;;5114512;28;20506;-78
2022/03/04 01:32:50;;;;;;;1.45;1.05;;;20.60;35.50;;;;;;5114465;28;20051;-79
2022/03/04 01:35:15;;;;;;;1.63;1.23;;;20.50;35.40;;;;;;5113194;28;20078;-79
2022/03/04 01:37:41;;;;;;;3.70;1.45;;;20.50;35.40;;;;;;5113868;28;20062;-79
2022/03/04 01:40:08;;;;;;;2.72;1.45;;;20.50;35.40;;;;;;5096399;28;20510;-79
2022/03/04 01:42:35;;;;;;;2.72;1.42;;;20.50;35.40;;;;;;5114298;28;20406;-79
2022/03/04 01:45:02;;;;;;;2.33;1.25;;;20.60;35.40;;;;;;5096276;28;20054;-79
2022/03/04 01:47:28;;;;;;;1.60;1.20;;;20.50;35.40;;;;;;5114122;28;20507;-78
2022/03/04 01:49:54;;;;;;;1.92;1.42;;;20.50;35.40;;;;;;5095777;28;20090;-79
2022/03/04 01:52:20;;;;;;;1.83;1.30;;;20.60;35.50;;;;;;5114088;28;20055;-79
2022/03/04 01:54:45;;;;;;;1.33;1.23;;;20.50;35.40;;;;;;5114167;28;20059;-79
2022/03/04 01:57:11;;;;;;;1.65;1.30;;;20.50;35.40;;;;;;5114030;28;20055;-79
2022/03/04 01:59:37;;;;;;;1.55;1.08;;;20.60;35.40;;;;;;5112840;28;20047;-78
2022/03/04 02:02:03;;;;;;;1.70;1.20;;;20.50;35.40;;;;;;5114003;28;20376;-79
2022/03/04 02:04:29;;;;;;;1.00;0.88;;;20.50;35.40;;;;;;5113900;28;20448;-79
2022/03/04 02:06:56;;;;;;;1.58;1.20;;;20.50;35.40;;;;;;5113960;28;20051;-79
2022/03/04 02:09:21;;;;;;;1.35;1.25;;;20.50;35.90;;;;;;5113918;28;20048;-78
2022/03/04 02:11:48;;;;;;;1.35;1.05;;;20.50;35.40;;;;;;5114021;28;20108;-79
2022/03/04 02:14:15;;;;;;;1.45;1.08;;;20.50;35.40;;;;;;5113755;28;20062;-79
2022/03/04 02:16:46;;;;;;;2.33;1.10;;;20.50;35.40;;;;;;5113059;28;20097;-79
2022/03/04 02:19:12;;;;;;;1.33;1.20;;;20.50;35.40;;;;;;5093605;28;20066;-79
2022/03/04 02:22:00;;;;;;;1.23;1.13;;;20.50;35.40;;;;;;5094779;28;20052;-79
2022/03/04 02:24:32;;;;;;;1.20;1.10;;;20.50;35.40;;;;;;5113676;28;20134;-79
2022/03/04 02:27:01;;;;;;;1.42;1.15;;;20.50;35.40;;;;;;5113715;28;20051;-79
2022/03/04 02:29:30;;;;;;;1.40;1.17;;;20.50;35.40;;;;;;5113610;28;20146;-79
2022/03/04 02:31:57;;;;;;;1.10;1.00;;;20.50;35.40;;;;;;5112196;28;20084;-79
2022/03/04 02:34:22;;;;;;;1.10;1.00;;;20.60;35.40;;;;;;5094510;28;20514;-79
2022/03/04 02:36:48;;;;;;;0.90;0.90;;;20.50;35.40;;;;;;5113125;28;20134;-78
2022/03/04 02:39:14;;;;;;;1.52;1.20;;;20.50;35.40;;;;;;5094943;28;20373;-79
2022/03/04 02:41:40;;;;;;;2.08;1.27;;;20.60;35.40;;;;;;5094189;28;20124;-79
2022/03/04 02:44:08;;;;;;;1.45;1.10;;;20.50;35.40;;;;;;5113497;28;20097;-79
2022/03/04 02:46:35;;;;;;;1.67;1.08;;;20.60;35.40;;;;;;5112956;28;20095;-78
2022/03/04 02:49:01;;;;;;;1.73;1.10;;;20.60;35.40;;;;;;5113267;28;20062;-79
2022/03/04 02:51:28;;;;;;;2.03;1.25;;;20.60;35.40;;;;;;5110728;28;20056;-79
2022/03/04 02:53:53;;;;;;;4.25;1.30;;;20.60;35.40;;;;;;5113406;28;20063;-79
2022/03/04 02:56:20;;;;;;;1.77;1.30;;;20.60;35.40;;;;;;5113049;28;20056;-79
2022/03/04 02:58:46;;;;;;;1.80;1.25;;;20.60;35.40;;;;;;5111821;28;20054;-79
2022/03/04 03:01:11;;;;;;;1.30;1.20;;;20.60;35.40;;;;;;5113232;28;20100;-79
2022/03/04 03:03:37;;;;;;;2.40;1.10;;;20.60;35.40;;;;;;5113412;28;20055;-79
2022/03/04 03:06:03;;;;;;;1.98;1.42;;;20.60;35.30;;;;;;5113042;28;20064;-79
2022/03/04 03:08:30;;;;;;;1.75;1.30;;;20.60;35.30;;;;;;5113436;28;20048;-79
2022/03/04 03:10:56;;;;;;;2.22;1.50;;;20.60;35.30;;;;;;5095108;28;20047;-79
2022/03/04 03:13:22;;;;;;;1.30;1.10;;;20.60;35.30;;;;;;5112952;28;20514;-79
2022/03/04 03:15:48;;;;;;;1.20;1.05;;;20.60;35.30;;;;;;5112975;28;20058;-79
2022/03/04 03:18:14;;;;;;;2.38;1.05;;;20.60;35.30;;;;;;5094971;28;20047;-79
2022/03/04 03:20:40;;;;;;;2.25;1.00;;;20.70;35.30;;;;;;5112956;28;20048;-79
2022/03/04 03:23:05;;;;;;;1.90;1.00;;;20.70;35.30;;;;;;5112765;28;20179;-79
2022/03/04 03:25:31;;;;;;;2.30;1.50;;;20.70;35.30;;;;;;5111525;28;20055;-79
2022/03/04 03:27:56;;;;;;;1.27;1.17;;;20.70;35.30;;;;;;5112863;28;20048;-79
2022/03/04 03:30:22;;;;;;;2.63;1.25;;;20.70;35.20;;;;;;5116468;28;20055;-78
2022/03/04 03:32:48;;;;;;;2.72;1.25;;;20.70;35.20;;;;;;5116335;28;20055;-78
2022/03/04 03:35:14;;;;;;;2.35;1.20;;;20.70;35.20;;;;;;5116481;28;20056;-79
2022/03/04 03:37:40;;;;;;;1.35;1.08;;;20.70;35.20;;;;;;5116170;28;20062;-79
2022/03/04 03:40:08;;;;;;;1.40;1.20;;;20.70;35.20;;;;;;5115081;28;20066;-79
2022/03/04 03:42:35;;;;;;;1.20;1.10;;;20.70;35.20;;;;;;5116524;28;20439;-79
2022/03/04 03:45:00;;;;;;;2.00;1.40;;;20.70;35.20;;;;;;5097966;28;20445;-79
2022/03/04 03:47:26;;;;;;;1.23;1.08;;;20.70;35.30;;;;;;5116006;28;20051;-79
2022/03/04 03:49:51;;;;;;;2.17;1.40;;;20.70;35.20;;;;;;5096993;28;20097;-79
2022/03/04 03:52:17;;;;;;;1.05;0.95;;;20.70;35.30;;;;;;5116185;28;20051;-78
2022/03/04 03:54:43;;;;;;;1.42;1.13;;;20.70;35.30;;;;;;5097687;28;20047;-79
2022/03/04 03:57:10;;;;;;;1.17;0.93;;;20.70;35.20;;;;;;5116211;28;20147;-79
2022/03/04 03:59:36;;;;;;;1.35;1.25;;;20.70;35.20;;;;;;5115788;28;20055;-78
2022/03/04 04:02:03;;;;;;;1.23;1.05;;;20.70;35.20;;;;;;5115870;28;20051;-79
2022/03/04 04:04:35;;;;;;;3.65;1.40;;;20.70;35.20;;;;;;5115969;28;20082;-79
2022/03/04 04:07:07;;;;;;;1.85;1.30;;;20.70;35.30;;;;;;5116125;28;20071;-79
2022/03/04 04:09:34;;;;;;;1.40;1.20;;;20.70;35.20;;;;;;5095904;28;20073;-79
2022/03/04 04:12:01;;;;;;;1.42;1.05;;;20.70;35.20;;;;;;5115829;28;20047;-79
2022/03/04 04:14:28;;;;;;;2.33;1.27;;;20.70;35.20;;;;;;5097388;28;20466;-78
2022/03/04 04:16:55;;;;;;;1.30;0.80;;;20.70;35.20;;;;;;5115623;28;20048;-79
2022/03/04 04:19:22;;;;;;;1.42;0.90;;;20.70;35.20;;;;;;5115355;28;20047;-79
2022/03/04 04:21:49;;;;;;;1.90;1.30;;;20.70;35.30;;;;;;5115401;28;20051;-78
2022/03/04 04:24:15;;;;;;;2.78;1.40;;;20.70;35.20;;;;;;5115566;28;20052;-79
2022/03/04 04:26:41;;;;;;;1.35;1.25;;;20.70;35.20;;;;;;5115315;28;20192;-78
2022/03/04 04:29:06;;;;;;;0.95;0.88;;;20.70;35.20;;;;;;5115416;28;20134;-79
2022/03/04 04:31:32;;;;;;;1.65;1.25;;;20.70;35.20;;;;;;5115312;28;20063;-78
2022/03/04 04:33:59;;;;;;;1.17;1.00;;;20.70;35.20;;;;;;5115675;28;20051;-78
2022/03/04 04:36:26;;;;;;;1.17;1.08;;;20.70;35.20;;;;;;5095141;28;20059;-79
2022/03/04 04:38:52;;;;;;;1.33;0.90;;;20.70;35.20;;;;;;5096627;28;20491;-79
2022/03/04 04:41:18;;;;;;;1.42;1.20;;;20.70;35.20;;;;;;5115275;28;20059;-79
2022/03/04 04:43:44;;;;;;;1.95;1.17;;;20.70;35.20;;;;;;5115274;28;20051;-78
2022/03/04 04:46:10;;;;;;;1.27;1.00;;;20.70;35.20;;;;;;5094963;28;20048;-78
2022/03/04 04:48:36;;;;;;;1.30;1.20;;;20.70;35.20;;;;;;5115098;28;20071;-79
2022/03/04 04:51:02;;;;;;;1.58;1.20;;;20.70;35.20;;;;;;5115167;28;20090;-78
2022/03/04 04:53:28;;;;;;;2.22;1.52;;;20.70;35.20;;;;;;5115031;28;20138;-79
2022/03/04 04:55:54;;;;;;;1.40;1.20;;;20.70;35.20;;;;;;5115156;28;20055;-79
2022/03/04 04:58:19;;;;;;;1.80;1.05;;;20.70;35.20;;;;;;5114909;28;20047;-78
2022/03/04 05:00:50;;;;;;;2.67;1.20;;;20.70;35.20;;;;;;5115130;28;20043;-79
2022/03/04 05:03:16;;;;;;;1.75;1.02;;;20.70;35.20;;;;;;5096648;28;20055;-79
2022/03/04 05:05:41;;;;;;;1.30;1.10;;;20.70;35.20;;;;;;5114903;28;20096;-78
2022/03/04 05:08:07;;;;;;;1.17;0.95;;;20.70;35.20;;;;;;5114779;28;20059;-79
2022/03/04 05:10:33;;;;;;;1.85;1.10;;;20.70;35.20;;;;;;5114873;28;20130;-79
2022/03/04 05:12:59;;;;;;;1.00;0.93;;;20.70;35.20;;;;;;5113473;28;20055;-79
2022/03/04 05:15:24;;;;;;;1.45;1.10;;;20.70;35.20;;;;;;5096071;28;20059;-79
2022/03/04 05:17:53;;;;;;;2.25;1.20;;;20.70;35.20;;;;;;5115225;28;20058;-79
2022/03/04 05:20:18;;;;;;;1.70;1.00;;;20.70;35.20;;;;;;5115069;28;20051;-79
2022/03/04 05:22:44;;;;;;;1.10;0.80;;;20.70;35.20;;;;;;5094447;28;20054;-79
2022/03/04 05:25:10;;;;;;;1.60;1.20;;;20.70;35.20;;;;;;5112876;28;20058;-79
2022/03/04 05:27:36;;;;;;;1.20;1.08;;;20.70;35.20;;;;;;5096247;28;20051;-79
2022/03/04 05:30:03;;;;;;;1.25;0.98;;;20.70;35.20;;;;;;5114377;28;20047;-79
2022/03/04 05:32:29;;;;;;;2.17;1.42;;;20.70;35.20;;;;;;5114486;28;20060;-79
2022/03/04 05:34:54;;;;;;;1.30;1.10;;;20.70;35.20;;;;;;5114547;28;20623;-79
2022/03/04 05:37:20;;;;;;;1.48;1.27;;;20.70;35.20;;;;;;5114351;28;20052;-79
2022/03/04 05:39:45;;;;;;;1.27;1.17;;;20.70;35.20;;;;;;5114376;28;20100;-79
2022/03/04 05:42:11;;;;;;;1.42;1.33;;;20.70;35.20;;;;;;5114706;28;20126;-79
2022/03/04 05:44:37;;;;;;;1.50;1.10;;;20.70;35.20;;;;;;5095991;28;20130;-79
2022/03/04 05:47:04;;;;;;;1.17;0.98;;;20.70;35.20;;;;;;5114330;28;20055;-79
2022/03/04 05:49:31;;;;;;;1.10;1.00;;;20.70;35.20;;;;;;5095802;28;20063;-79
2022/03/04 05:51:58;;;;;;;0.80;0.80;;;20.70;35.20;;;;;;5094896;28;20064;-79
2022/03/04 05:54:26;;;;;;;1.83;1.33;;;20.70;35.20;;;;;;5114071;28;20415;-79
2022/03/04 05:56:52;;;;;;;1.38;1.10;;;20.70;35.20;;;;;;5095701;28;20101;-79
2022/03/04 05:59:17;;;;;;;1.50;1.10;;;20.70;35.20;;;;;;5093689;28;20132;-79
2022/03/04 06:01:44;;;;;;;1.20;1.10;;;20.70;35.20;;;;;;5113904;28;20055;-79
2022/03/04 06:04:09;;;;;;;1.38;1.00;;;20.70;35.20;;;;;;5096214;28;20146;-79
2022/03/04 06:06:35;;;;;;;1.30;0.95;;;20.70;35.20;;;;;;5094247;28;20170;-79
2022/03/04 06:09:00;;;;;;;1.23;1.10;;;20.70;35.20;;;;;;5113740;28;20553;-79
2022/03/04 06:11:26;;;;;;;0.77;0.77;;;20.70;35.20;;;;;;5094847;28;20048;-79
2022/03/04 06:13:51;;;;;;;1.25;1.15;;;20.70;35.10;;;;;;5114283;28;20475;-79
2022/03/04 06:16:17;;;;;;;1.50;0.90;;;20.70;35.10;;;;;;5113842;28;20059;-79
2022/03/04 06:18:43;;;;;;;1.00;1.00;;;20.70;35.20;;;;;;5113380;28;20479;-79
2022/03/04 06:21:08;;;;;;;1.17;1.05;;;20.70;35.20;;;;;;5112435;28;20055;-79
2022/03/04 06:23:34;;;;;;;1.88;1.00;;;20.70;35.20;;;;;;5113692;28;20673;-79
2022/03/04 06:26:00;;;;;;;1.25;1.10;;;20.70;35.20;;;;;;5114261;28;20058;-79
2022/03/04 06:28:26;;;;;;;1.27;1.17;;;20.70;35.20;;;;;;5113645;28;20078;-79
2022/03/04 06:30:53;;;;;;;1.10;1.00;;;20.70;35.20;;;;;;5113481;28;20051;-79
2022/03/04 06:33:36;;;;;;;0.93;0.90;;;20.70;35.10;;;;;;5095175;28;20082;-79
2022/03/04 06:36:08;;;;;;;1.98;1.30;;;20.70;35.10;;;;;;5113524;28;20059;-79
2022/03/04 06:38:36;;;;;;;1.15;0.88;;;20.70;35.10;;;;;;5113326;28;20062;-79
2022/03/04 06:41:03;;;;;;;1.45;1.10;;;20.70;35.10;;;;;;5113560;28;20055;-79
2022/03/04 06:43:29;;;;;;;1.23;0.90;;;20.70;35.10;;;;;;5113262;28;20105;-79
2022/03/04 06:45:55;;;;;;;1.63;1.00;;;20.70;35.10;;;;;;5111892;28;20051;-79
2022/03/04 06:48:23;;;;;;;1.55;1.10;;;20.70;35.10;;;;;;5094960;28;20044;-79
2022/03/04 06:50:50;;;;;;;1.40;0.88;;;20.70;35.10;;;;;;5113475;28;20047;-79
2022/03/04 06:53:16;;;;;;;1.17;1.00;;;20.70;35.10;;;;;;5094821;28;20487;-79
2022/03/04 06:55:42;;;;;;;1.30;1.20;;;20.70;35.10;;;;;;5113110;28;20051;-79
2022/03/04 06:58:07;;;;;;;1.23;0.90;;;20.70;35.10;;;;;;5110967;28;20509;-78
2022/03/04 07:00:33;;;;;;;1.40;0.98;;;20.70;35.10;;;;;;5110721;28;20138;-79
2022/03/04 07:02:59;;;;;;;1.05;1.00;;;20.70;35.10;;;;;;5112883;28;20091;-78
2022/03/04 07:05:24;;;;;;;1.33;1.20;;;20.70;35.10;;;;;;5112966;28;20415;-79
2022/03/04 07:07:51;;;;;;;2.20;1.00;;;20.80;35.20;;;;;;5112779;28;20100;-79
2022/03/04 07:10:17;;;;;;;1.30;1.10;;;20.80;35.20;;;;;;5112946;28;20059;-79
2022/03/04 07:12:43;;;;;;;1.23;0.93;;;20.80;35.10;;;;;;5112912;28;20067;-79
2022/03/04 07:15:09;;;;;;;0.90;0.80;;;20.80;35.20;;;;;;5094504;28;20135;-79
2022/03/04 07:17:35;;;;;;;1.08;0.95;;;20.80;35.10;;;;;;5092960;28;20442;-79
2022/03/04 07:20:02;;;;;;;1.95;1.27;;;20.80;35.10;;;;;;5112859;28;20044;-78
2022/03/04 07:22:27;;;;;;;2.08;1.13;;;20.80;35.10;;;;;;5112796;28;20051;-78
2022/03/04 07:24:53;;;;;;;1.10;1.00;;;20.80;35.10;;;;;;5112776;28;20097;-79
2022/03/04 07:27:18;;;;;;;1.50;0.98;;;20.80;35.10;;;;;;5112638;28;20051;-79
2022/03/04 07:29:44;;;;;;;1.10;1.00;;;20.80;35.00;;;;;;5112689;28;20086;-79
2022/03/04 07:32:10;;;;;;;1.05;0.95;;;20.80;35.00;;;;;;5112948;28;20395;-79
2022/03/04 07:34:36;;;;;;;1.52;1.10;;;20.80;35.00;;;;;;5112857;28;20039;-79
2022/03/04 07:37:02;;;;;;;0.80;0.80;;;20.80;35.00;;;;;;5094151;28;20047;-78
2022/03/04 07:39:29;;;;;;;1.20;0.90;;;20.80;35.00;;;;;;5093699;28;20083;-79
2022/03/04 07:41:55;;;;;;;1.20;0.98;;;20.80;35.00;;;;;;5112434;28;20048;-79
2022/03/04 07:44:27;;;;;;;1.00;0.90;;;20.80;35.00;;;;;;5112485;28;20089;-78
2022/03/04 07:46:52;;;;;;;1.05;0.90;;;20.80;35.00;;;;;;5112540;28;20187;-79
2022/03/04 07:49:18;;;;;;;0.90;0.90;;;20.80;35.00;;;;;;5112448;28;20051;-79
2022/03/04 07:51:43;;;;;;;1.00;0.90;;;20.80;34.90;;;;;;5112548;28;20484;-79
2022/03/04 07:54:10;;;;;;;1.77;1.05;;;20.90;34.90;;;;;;5112540;28;20113;-79
2022/03/04 07:56:35;;;;;;;0.82;0.82;;;20.90;35.00;;;;;;5112415;28;20047;-79
2022/03/04 07:59:01;;;;;;;1.20;1.02;;;20.90;35.00;;;;;;5109855;28;20507;-79
2022/03/04 08:01:27;;;;;;;1.70;1.05;;;20.90;35.00;;;;;;5109550;28;20086;-79
2022/03/04 08:03:52;;;;;;;1.77;1.05;;;20.80;34.90;;;;;;5112189;28;20470;-79
2022/03/04 08:06:18;;;;;;;1.25;0.98;;;20.90;35.00;;;;;;5112824;28;20054;-79
2022/03/04 08:08:44;;;;;;;0.80;0.80;;;20.90;35.00;;;;;;5092184;28;20098;-79
2022/03/04 08:11:09;;;;;;;1.20;1.10;;;20.90;35.00;;;;;;5112772;28;20510;-79
2022/03/04 08:13:36;;;;;;;1.70;1.00;;;20.80;34.90;;;;;;5112464;28;20056;-78
2022/03/04 08:16:02;;;;;;;0.93;0.70;;;20.90;34.90;;;;;;5096860;28;20051;-78
2022/03/04 08:18:28;;;;;;;1.23;0.85;;;20.90;34.90;;;;;;5115567;28;20040;-79
2022/03/04 08:20:54;;;;;;;0.98;0.90;;;20.90;34.90;;;;;;5115772;28;20048;-78
2022/03/04 08:23:19;;;;;;;1.90;1.05;;;20.90;34.90;;;;;;5115494;28;20059;-79
2022/03/04 08:25:45;;;;;;;0.77;0.77;;;20.90;34.90;;;;;;5115771;28;20047;-79
2022/03/04 08:28:10;;;;;;;2.00;1.00;;;20.90;34.80;;;;;;5115335;28;20087;-79
2022/03/04 08:30:36;;;;;;;1.50;1.10;;;20.90;34.80;;;;;;5115760;28;20052;-79
2022/03/04 08:33:02;;;;;;;0.95;0.95;;;20.90;34.80;;;;;;5115297;28;20380;-78
2022/03/04 08:35:27;;;;;;;0.93;0.80;;;20.90;34.80;;;;;;5095104;28;20063;-79
2022/03/04 08:37:53;;;;;;;1.15;1.05;;;20.90;34.80;;;;;;5096464;28;20066;-78
2022/03/04 08:40:19;;;;;;;0.85;0.80;;;20.90;34.80;;;;;;5115323;28;20415;-79
2022/03/04 08:42:45;;;;;;;0.80;0.80;;;21.00;34.80;;;;;;5114012;28;20062;-79
2022/03/04 08:45:13;;;;;;;0.90;0.90;;;20.90;34.70;;;;;;5115238;28;20055;-79
2022/03/04 08:47:39;;;;;;;1.27;1.00;;;20.90;34.80;;;;;;5114808;28;20051;-79
2022/03/04 08:50:06;;;;;;;1.45;0.88;;;21.00;34.80;;;;;;5097163;28;20052;-79
2022/03/04 08:52:32;;;;;;;1.35;1.13;;;21.00;34.70;;;;;;5114987;28;20051;-79
2022/03/04 08:54:57;;;;;;;1.10;0.90;;;21.00;34.70;;;;;;5115030;28;20484;-76
2022/03/04 08:57:23;;;;;;;1.48;0.90;;;21.00;34.60;;;;;;5078806;28;20066;-77
2022/03/04 08:59:49;;;;;;;0.77;0.77;;;21.10;34.70;;;;;;5114836;28;20043;-79
2022/03/04 09:02:14;;;;;;;0.80;0.70;;;21.00;34.70;;;;;;5114991;28;20134;-79
2022/03/04 09:04:40;;;;;;;0.80;0.80;;;21.00;34.70;;;;;;5114938;28;20097;-78
2022/03/04 09:07:06;;;;;;;1.10;1.00;;;21.00;34.70;;;;;;5114965;28;20079;-79
2022/03/04 09:09:34;;;;;;;2.28;1.00;;;21.00;34.70;;;;;;5114808;28;20124;-79
2022/03/04 09:12:01;;;;;;;1.15;1.00;;;21.00;34.70;;;;;;5114821;28;20083;-79
2022/03/04 09:14:27;;;;;;;1.20;0.93;;;21.00;34.70;;;;;;5115049;28;20054;-79
2022/03/04 09:16:53;;;;;;;0.63;0.63;;;21.00;34.70;;;;;;5113371;28;20142;-78
2022/03/04 09:19:19;;;;;;;1.05;0.95;;;21.00;34.70;;;;;;5094189;28;20430;-78
2022/03/04 09:21:47;;;;;;;0.93;0.85;;;21.00;34.70;;;;;;5114298;28;20484;-78
2022/03/04 09:24:13;;;;;;;0.98;0.98;;;21.00;35.20;;;;;;5114880;28;20455;-79
2022/03/04 09:26:38;;;;;;;1.05;0.95;;;21.00;34.70;;;;;;5110278;28;20090;-79
2022/03/04 09:29:04;;;;;;;1.10;0.80;;;21.00;34.70;;;;;;5114319;28;20099;-79
2022/03/04 09:31:32;;;;;;;1.27;1.10;;;21.00;34.70;;;;;;5114335;28;20058;-79
2022/03/04 09:33:58;;;;;;;1.05;0.90;;;21.00;34.70;;;;;;5114283;28;20059;-79
2022/03/04 09:36:23;;;;;;;1.25;1.00;;;21.00;34.70;;;;;;5094072;28;20492;-79
2022/03/04 09:38:49;;;;;;;1.48;0.95;;;21.00;34.70;;;;;;5113933;28;20050;-79
2022/03/04 09:41:15;;;;;;;1.58;0.95;;;21.00;34.70;;;;;;5114295;28;20051;-79
2022/03/04 09:43:41;;;;;;;1.13;0.90;;;21.00;34.70;;;;;;5113241;28;20075;-79
2022/03/04 09:46:07;;;;;;;1.20;1.08;;;21.00;34.70;;;;;;5096146;28;20118;-79
2022/03/04 09:48:39;;;;;;;1.10;1.00;;;21.00;34.70;;;;;;5095786;28;20051;-79
2022/03/04 09:51:07;;;;;;;2.00;1.00;;;21.00;34.70;;;;;;5114472;28;20086;-79
2022/03/04 09:53:33;;;;;;;0.98;0.88;;;21.00;34.70;;;;;;5114398;28;20048;-78
2022/03/04 09:55:58;;;;;;;1.30;0.90;;;21.00;34.70;;;;;;5113982;28;20051;-79
2022/03/04 09:58:24;;;;;;;1.27;0.93;;;21.00;34.60;;;;;;5095509;28;20062;-79
2022/03/04 10:00:49;;;;;;;0.90;0.85;;;21.10;34.60;;;;;;5113954;28;20047;-79
2022/03/04 10:03:21;;;;;;;0.90;0.90;;;21.10;34.60;;;;;;5113881;28;20047;-78
2022/03/04 10:05:55;;;;;;;1.42;1.10;;;21.10;34.60;;;;;;5113857;28;20090;-79
2022/03/04 10:08:21;;;;;;;0.95;0.80;;;21.10;34.60;;;;;;5113925;28;20067;-79
2022/03/04 10:10:51;;;;;;;0.73;0.73;;;21.10;34.60;;;;;;5095662;28;20403;-79
2022/03/04 10:13:17;;;;;;;0.65;0.60;;;21.10;34.60;;;;;;5113955;28;20059;-78
2022/03/04 10:15:55;;;;;;;1.35;1.10;;;21.00;34.60;;;;;;5093182;28;20054;-78
2022/03/04 10:18:26;;;;;;;0.90;0.90;;;21.10;34.60;;;;;;5095398;28;20067;-79
2022/03/04 10:20:52;;;;;;;1.08;0.98;;;21.10;34.60;;;;;;5094607;28;20106;-79
2022/03/04 10:23:20;;;;;;;1.20;1.10;;;21.10;34.50;;;;;;5114337;28;20503;-79
2022/03/04 10:25:48;;;;;;;1.05;0.80;;;21.20;34.50;;;;;;5113677;28;20384;-79
2022/03/04 10:28:14;;;;;;;1.20;1.05;;;21.20;34.50;;;;;;5113755;28;20051;-79
2022/03/04 10:30:49;;;;;;;1.17;0.90;;;21.20;34.50;;;;;;5095228;28;20139;-78
2022/03/04 10:33:18;;;;;;;0.95;0.85;;;21.20;34.50;;;;;;5113461;28;20146;-79
2022/03/04 10:35:45;;;;;;;1.52;0.80;;;21.20;34.40;;;;;;5113398;28;20051;-79
2022/03/04 10:38:23;;;;;;;0.80;0.75;;;21.20;34.40;;;;;;5112866;27;20444;-79
2022/03/04 10:40:49;;;;;;;1.17;0.90;;;21.20;34.40;;;;;;5112016;28;20058;-79
2022/03/04 10:43:23;;;;;;;1.10;1.00;;;21.30;34.40;;;;;;5113348;28;20408;-78
2022/03/04 10:46:04;;;;;;;0.98;0.85;;;21.20;34.40;;;;;;5113345;28;20127;-78
2022/03/04 10:48:31;;;;;;;1.05;0.95;;;21.30;34.40;;;;;;5113327;28;20444;-79
2022/03/04 10:50:58;;;;;;;1.13;1.00;;;21.30;34.40;;;;;;5113134;28;20047;-78
2022/03/04 10:53:29;;;;;;;1.80;0.95;;;21.30;34.40;;;;;;5095171;28;20054;-79
2022/03/04 10:56:05;;;;;;;1.17;0.93;;;21.30;34.40;;;;;;5094898;28;20181;-79
2022/03/04 10:58:38;;;;;;;1.10;1.00;;;21.30;34.40;;;;;;5094612;28;20066;-79
2022/03/04 11:01:16;;;;;;;0.93;0.82;;;21.30;34.30;;;;;;5095061;28;20054;-79
2022/03/04 11:03:42;;;;;;;0.82;0.70;;;21.30;34.30;;;;;;5113403;28;20051;-78
2022/03/04 11:06:13;;;;;;;0.95;0.70;;;21.30;34.30;;;;;;5093446;28;20059;-79
2022/03/04 11:08:40;;;;;;;0.90;0.90;;;21.30;34.30;;;;;;5093236;28;20063;-79
2022/03/04 11:11:07;;;;;;;1.08;0.82;;;21.30;34.30;;;;;;5112866;28;20048;-78
2022/03/04 11:13:34;;;;;;;0.95;0.80;;;21.30;34.40;;;;;;5094818;28;20083;-77
2022/03/04 11:16:02;;;;;;;0.75;0.75;;;21.30;34.40;;;;;;5112525;28;20047;-76
2022/03/04 11:18:29;;;;;;;1.45;1.20;;;21.30;34.30;;;;;;5094319;28;20058;-78
2022/03/04 11:20:58;;;;;;;0.80;0.80;;;21.30;34.40;;;;;;5112654;28;20051;-77
2022/03/04 11:23:26;;;;;;;0.70;0.70;;;21.30;34.40;;;;;;5111451;28;20055;-77
2022/03/04 11:26:09;;;;;;;0.80;0.80;;;21.30;34.40;;;;;;5112638;28;20403;-77
2022/03/04 11:28:41;;;;;;;1.27;1.00;;;21.30;34.40;;;;;;5112385;28;20047;-78
2022/03/04 11:31:08;;;;;;;0.80;0.80;;;21.30;34.40;;;;;;5112677;28;20085;-77
2022/03/04 11:33:36;;;;;;;0.65;0.65;;;21.30;34.40;;;;;;5112603;28;20403;-77
2022/03/04 11:36:13;;;;;;;1.00;0.90;;;21.30;34.40;;;;;;5112572;28;20055;-78
2022/03/04 11:38:47;;;;;;;0.85;0.80;;;21.30;34.40;;;;;;5112352;28;20048;-77
2022/03/04 11:41:19;;;;;;;0.85;0.75;;;21.30;34.40;;;;;;5112481;28;20047;-79
2022/03/04 11:43:46;;;;;;;1.13;0.95;;;21.30;34.40;;;;;;5110481;28;20063;-79
2022/03/04 11:46:24;;;;;;;0.93;0.60;;;21.30;34.40;;;;;;5112608;28;20078;-79
2022/03/04 11:49:27;;;;;;;1.20;0.90;;;21.30;34.30;;;;;;5112578;28;20043;-78
2022/03/04 11:52:12;;;;;;;2.63;0.95;;;21.30;34.30;;;;;;5116378;28;20039;-79
2022/03/04 11:54:49;;;;;;;1.25;1.00;;;21.30;34.30;;;;;;5116151;28;20096;-79
2022/03/04 11:57:22;;;;;;;1.08;0.90;;;21.30;34.30;;;;;;5116062;28;20126;-79
2022/03/04 11:59:54;;;;;;;1.23;0.80;;;21.30;34.40;;;;;;5097533;28;20051;-79
2022/03/04 12:02:44;;;;;;;0.70;0.68;;;21.30;34.40;;;;;;5116295;28;20418;-79
2022/03/04 12:05:13;;;;;;;0.80;0.80;;;21.30;34.40;;;;;;5116266;28;20062;-79
2022/03/04 12:07:44;;;;;;;0.80;0.70;;;21.30;34.40;;;;;;5115745;28;20055;-79
2022/03/04 12:10:12;;;;;;;1.00;0.75;;;21.30;34.40;;;;;;5097432;28;20051;-78
2022/03/04 12:12:39;;;;;;;1.23;0.88;;;21.30;34.40;;;;;;5115683;28;20052;-79
2022/03/04 12:15:16;;;;;;;0.95;0.70;;;21.30;34.40;;;;;;5115709;28;20047;-78
2022/03/04 12:18:04;;;;;;;1.42;1.00;;;21.30;34.40;;;;;;5078843;28;20063;-78
2022/03/04 12:20:40;;;;;;;1.75;0.88;;;21.30;34.30;;;;;;5097540;28;20079;-78
2022/03/04 12:23:09;;;;;;;0.70;0.70;;;21.30;34.40;;;;;;5115758;28;20056;-78
2022/03/04 12:26:02;;;;;;;1.20;0.80;;;21.30;34.40;;;;;;5115541;28;20055;-78
2022/03/04 12:28:27;;;;;;;0.85;0.80;;;21.20;34.30;;;;;;5112070;28;20048;-78
2022/03/04 12:31:02;;;;;;;0.70;0.70;;;21.30;34.40;;;;;;5097208;28;20461;-78
2022/03/04 12:33:38;;;;;;;1.17;1.00;;;21.30;34.40;;;;;;5115477;28;20055;-78
2022/03/04 12:36:05;;;;;;;0.80;0.80;;;21.20;34.30;;;;;;5114054;28;20151;-78
2022/03/04 12:38:45;;;;;;;1.67;0.95;;;21.20;34.40;;;;;;5095452;28;20090;-78
2022/03/04 12:41:16;;;;;;;1.55;0.98;;;21.30;34.40;;;;;;5114402;28;20047;-78
2022/03/04 12:43:46;;;;;;;;;;;21.30;34.40;;;;;;5115852;28;20083;-78
2022/03/04 12:46:13;;;;;;;1.92;1.00;;;21.30;34.40;;;;;;5115257;28;19950;-78
2022/03/04 12:48:40;;;;;;;1.35;0.70;;;21.30;34.40;;;;;;5115091;28;20051;-78